Time;durP1;ratioP1;P1;durP2;ratioP2;P2;SDS_P1;SDS_P2;PMS_P1;PMS_P2;Temp;Humidity;BMP_temperature;BMP_pressure;BME280_temperature;BME280_humidity;BME280_pressure;Samples;Min_cycle;Max_cycle;Signal;HPM_P1;HPM_P2
2021/04/19 00:01:07;;;;;;;10.80;6.37;;;11.70;88.20;;;;;;5035090;28;20502;-81
2021/04/19 00:03:32;;;;;;;13.43;7.20;;;11.70;88.40;;;;;;5037336;28;20024;-81
2021/04/19 00:05:59;;;;;;;9.53;6.83;;;11.60;88.90;;;;;;5024997;28;20044;-81
2021/04/19 00:08:25;;;;;;;11.47;6.73;;;11.50;89.30;;;;;;5016768;28;20026;-81
2021/04/19 00:10:52;;;;;;;11.90;6.97;;;11.50;90.00;;;;;;5013845;28;20094;-81
2021/04/19 00:13:18;;;;;;;11.53;7.37;;;11.60;90.00;;;;;;5015462;28;20621;-81
2021/04/19 00:15:44;;;;;;;13.43;7.43;;;11.60;89.30;;;;;;5014862;28;20411;-81
2021/04/19 00:18:10;;;;;;;9.63;6.70;;;11.60;89.20;;;;;;5017517;28;20030;-81
2021/04/19 00:20:35;;;;;;;11.57;6.70;;;11.70;89.10;;;;;;5014958;28;20025;-81
2021/04/19 00:23:01;;;;;;;11.87;6.80;;;11.80;89.10;;;;;;5017086;28;20018;-80
2021/04/19 00:25:27;;;;;;;10.63;7.13;;;11.60;89.10;;;;;;5016824;28;20030;-81
2021/04/19 00:27:52;;;;;;;10.10;7.27;;;11.60;89.40;;;;;;5015578;28;20132;-81
2021/04/19 00:30:20;;;;;;;11.40;7.60;;;11.70;89.40;;;;;;5017163;28;20538;-81
2021/04/19 00:32:45;;;;;;;11.90;7.87;;;11.60;89.50;;;;;;5017336;28;20033;-81
2021/04/19 00:35:12;;;;;;;11.80;6.93;;;11.70;89.40;;;;;;5016721;28;20026;-81
2021/04/19 00:37:38;;;;;;;13.30;7.70;;;11.70;89.70;;;;;;5015670;28;20025;-81
2021/04/19 00:40:15;;;;;;;10.13;7.33;;;11.70;89.40;;;;;;5014855;28;20473;-81
2021/04/19 00:42:53;;;;;;;11.17;7.43;;;11.70;89.40;;;;;;5015472;28;20103;-81
2021/04/19 00:45:19;;;;;;;11.77;6.90;;;11.70;89.50;;;;;;5017428;28;20042;-81
2021/04/19 00:47:45;;;;;;;13.93;7.90;;;11.70;89.40;;;;;;5013226;28;20021;-80
2021/04/19 00:50:17;;;;;;;14.37;9.00;;;11.70;89.40;;;;;;5013430;28;20494;-81
2021/04/19 00:52:43;;;;;;;12.80;7.73;;;11.70;89.70;;;;;;5012867;28;20073;-81
2021/04/19 00:55:12;;;;;;;12.53;7.93;;;11.70;90.10;;;;;;5014683;28;20026;-81
2021/04/19 00:57:38;;;;;;;11.02;7.78;;;11.70;89.80;;;;;;5014799;28;20034;-80
2021/04/19 01:00:13;;;;;;;12.63;8.07;;;11.60;90.10;;;;;;5016253;28;20037;-81
2021/04/19 01:02:39;;;;;;;9.70;7.20;;;11.70;89.90;;;;;;5015032;28;20080;-81
2021/04/19 01:05:31;;;;;;;13.43;7.97;;;11.70;89.40;;;;;;5015008;28;20496;-80
2021/04/19 01:07:57;;;;;;;12.50;6.90;;;11.60;88.80;;;;;;5008311;28;20116;-81
2021/04/19 01:10:22;;;;;;;12.70;7.13;;;11.50;86.20;;;;;;5016228;28;20057;-81
2021/04/19 01:12:51;;;;;;;13.27;6.53;;;11.40;85.00;;;;;;5016173;28;20439;-81
2021/04/19 01:15:17;;;;;;;14.10;6.85;;;11.30;84.60;;;;;;5016684;28;20018;-80
2021/04/19 01:17:44;;;;;;;12.13;6.60;;;11.20;84.40;;;;;;5014523;28;20022;-80
2021/04/19 01:20:13;;;;;;;13.47;6.07;;;11.10;84.80;;;;;;5016907;28;20037;-80
2021/04/19 01:22:39;;;;;;;14.18;6.72;;;11.10;84.90;;;;;;5016472;28;20090;-80
2021/04/19 01:25:08;;;;;;;12.37;6.60;;;11.00;85.30;;;;;;5014610;28;20149;-80
2021/04/19 01:27:34;;;;;;;14.32;6.55;;;11.00;85.20;;;;;;5016740;28;20032;-81
2021/04/19 01:30:01;;;;;;;12.80;6.33;;;11.00;85.30;;;;;;5016350;28;20409;-80
2021/04/19 01:32:28;;;;;;;14.97;6.80;;;11.00;85.30;;;;;;5016961;28;20026;-80
2021/04/19 01:34:54;;;;;;;13.37;6.43;;;11.00;86.50;;;;;;5014974;28;20034;-81
2021/04/19 01:37:19;;;;;;;12.57;6.63;;;11.00;86.70;;;;;;5016958;28;20044;-81
2021/04/19 01:39:46;;;;;;;12.60;6.63;;;11.00;86.90;;;;;;5016304;28;20118;-80
2021/04/19 01:42:11;;;;;;;14.10;6.80;;;11.00;87.30;;;;;;5015762;28;20081;-80
2021/04/19 01:44:37;;;;;;;17.43;7.00;;;11.00;87.40;;;;;;5015675;28;20391;-80
2021/04/19 01:47:03;;;;;;;17.10;6.90;;;11.00;87.60;;;;;;5014791;28;20022;-81
2021/04/19 01:49:30;;;;;;;10.77;6.27;;;11.10;87.40;;;;;;5014488;28;20520;-81
2021/04/19 01:51:56;;;;;;;13.17;6.97;;;11.10;87.40;;;;;;5014553;28;20117;-81
2021/04/19 01:54:22;;;;;;;15.20;7.20;;;11.10;87.60;;;;;;5014734;28;20052;-81
2021/04/19 01:56:48;;;;;;;19.70;8.07;;;11.00;88.30;;;;;;5014258;28;20030;-80
2021/04/19 01:59:14;;;;;;;16.47;7.77;;;11.10;87.70;;;;;;5014586;28;20048;-80
2021/04/19 02:01:56;;;;;;;21.10;8.43;;;11.10;88.50;;;;;;5015997;28;20460;-80
2021/04/19 02:05:02;;;;;;;21.27;9.03;;;11.10;88.10;;;;;;5016446;28;20026;-80
2021/04/19 02:07:46;;;;;;;19.33;9.70;;;11.10;88.00;;;;;;5005279;28;20042;-81
2021/04/19 02:10:15;;;;;;;19.97;10.20;;;11.10;87.70;;;;;;5017282;28;20033;-80
2021/04/19 02:12:57;;;;;;;22.83;9.52;;;10.90;88.50;;;;;;5019640;28;20479;-80
2021/04/19 02:15:42;;;;;;;22.30;9.60;;;10.90;89.00;;;;;;5018995;28;20858;-80
2021/04/19 02:18:40;;;;;;;18.80;9.43;;;10.90;88.80;;;;;;5019178;28;20026;-80
2021/04/19 02:21:11;;;;;;;22.55;10.18;;;11.00;89.50;;;;;;5018795;28;20033;-80
2021/04/19 02:23:41;;;;;;;18.87;9.60;;;10.90;89.70;;;;;;5017806;28;20124;-81
2021/04/19 02:26:17;;;;;;;16.67;8.93;;;10.90;89.70;;;;;;5018056;28;20060;-80
2021/04/19 02:29:07;;;;;;;18.27;9.20;;;10.90;89.60;;;;;;5017871;28;20080;-80
2021/04/19 02:31:41;;;;;;;14.77;8.30;;;10.90;90.00;;;;;;5017411;28;20034;-81
2021/04/19 02:34:10;;;;;;;16.70;7.93;;;10.80;89.30;;;;;;5019661;28;20029;-81
2021/04/19 02:36:40;;;;;;;17.02;7.75;;;10.80;89.10;;;;;;5019361;28;20061;-81
2021/04/19 02:39:08;;;;;;;17.97;8.73;;;10.90;89.60;;;;;;5017449;28;20034;-80
2021/04/19 02:41:36;;;;;;;17.53;8.17;;;10.80;90.10;;;;;;5016407;28;20041;-80
2021/04/19 02:44:03;;;;;;;15.00;8.00;;;10.80;90.30;;;;;;5038667;22;20149;-85
2021/04/19 02:46:29;;;;;;;14.43;7.73;;;10.70;90.30;;;;;;5033656;28;20460;-85
2021/04/19 02:48:57;;;;;;;14.13;6.90;;;10.70;90.20;;;;;;5033710;28;20017;-85
2021/04/19 02:51:24;;;;;;;18.57;9.30;;;10.70;90.10;;;;;;5033520;28;20473;-85
2021/04/19 02:53:50;;;;;;;14.83;7.60;;;10.70;90.50;;;;;;5032356;28;20155;-85
2021/04/19 02:56:16;;;;;;;17.10;7.90;;;10.60;90.00;;;;;;5032369;28;20026;-85
2021/04/19 02:58:45;;;;;;;17.30;7.97;;;10.70;90.20;;;;;;5032911;28;20044;-85
2021/04/19 03:01:24;;;;;;;14.38;7.35;;;10.60;90.20;;;;;;5034082;28;20021;-85
2021/04/19 03:03:51;;;;;;;15.15;8.23;;;10.70;90.60;;;;;;5032934;28;20029;-85
2021/04/19 03:06:19;;;;;;;13.90;8.03;;;10.70;90.80;;;;;;5033744;28;20018;-85
2021/04/19 03:08:52;;;;;;;16.67;7.90;;;10.60;90.60;;;;;;5031933;28;20021;-84
2021/04/19 03:11:30;;;;;;;15.30;8.27;;;10.60;91.00;;;;;;5032744;28;20021;-85
2021/04/19 03:13:58;;;;;;;13.47;7.70;;;10.60;90.70;;;;;;5033163;28;20025;-85
2021/04/19 03:16:27;;;;;;;15.63;7.20;;;10.60;90.50;;;;;;5032109;28;20120;-85
2021/04/19 03:18:53;;;;;;;14.65;7.82;;;10.60;90.50;;;;;;5035422;28;20025;-83
2021/04/19 03:21:21;;;;;;;12.30;7.70;;;10.60;90.50;;;;;;5036656;28;20030;-84
2021/04/19 03:23:54;;;;;;;17.10;9.30;;;10.60;91.10;;;;;;5034859;28;20044;-84
2021/04/19 03:26:23;;;;;;;16.33;8.30;;;10.60;90.70;;;;;;5032556;28;20021;-89
2021/04/19 03:28:50;;;;;;;18.55;8.95;;;10.60;91.10;;;;;;5030413;28;20021;-88
2021/04/19 03:31:37;;;;;;;14.30;7.93;;;10.50;90.50;;;;;;5031532;28;20031;-86
2021/04/19 03:34:09;;;;;;;17.57;8.13;;;10.60;90.40;;;;;;5033595;28;20059;-84
2021/04/19 03:36:35;;;;;;;16.80;8.30;;;10.50;90.70;;;;;;5033040;28;20497;-84
2021/04/19 03:39:02;;;;;;;11.87;7.90;;;10.50;90.80;;;;;;5031147;28;20022;-84
2021/04/19 03:41:31;;;;;;;13.53;8.17;;;10.50;91.40;;;;;;5032655;28;20433;-84
2021/04/19 03:44:00;;;;;;;16.55;8.07;;;10.50;91.70;;;;;;5034040;28;20033;-84
2021/04/19 03:46:28;;;;;;;14.43;7.80;;;10.50;91.40;;;;;;5032116;28;20032;-85
2021/04/19 03:49:02;;;;;;;14.37;8.43;;;10.40;92.10;;;;;;5029876;28;20106;-86
2021/04/19 03:51:31;;;;;;;14.97;8.30;;;10.30;91.80;;;;;;5031630;28;20423;-85
2021/04/19 03:53:58;;;;;;;14.57;8.13;;;10.40;92.00;;;;;;5031351;28;20022;-84
2021/04/19 03:56:26;;;;;;;15.33;8.30;;;10.50;91.90;;;;;;5031346;28;20457;-86
2021/04/19 03:58:52;;;;;;;16.03;8.57;;;10.40;91.50;;;;;;5029849;28;20402;-84
2021/04/19 04:01:19;;;;;;;14.67;8.30;;;10.40;91.50;;;;;;5029298;28;20033;-85
2021/04/19 04:03:47;;;;;;;15.47;8.43;;;10.30;92.00;;;;;;5032973;28;20450;-84
2021/04/19 04:06:15;;;;;;;16.57;8.43;;;10.30;92.20;;;;;;5029622;28;20021;-84
2021/04/19 04:08:41;;;;;;;16.30;8.70;;;10.40;92.20;;;;;;5029812;28;20441;-84
2021/04/19 04:11:09;;;;;;;14.73;8.30;;;10.40;92.10;;;;;;5030345;28;20048;-84
2021/04/19 04:13:35;;;;;;;17.07;9.07;;;10.50;92.20;;;;;;5029742;28;20025;-84
2021/04/19 04:16:01;;;;;;;19.43;11.67;;;10.50;92.50;;;;;;5030949;28;20113;-84
2021/04/19 04:18:27;;;;;;;20.43;10.70;;;10.50;92.30;;;;;;5030862;28;20109;-84
2021/04/19 04:20:53;;;;;;;15.40;9.33;;;10.50;92.40;;;;;;5030106;28;20021;-84
2021/04/19 04:23:21;;;;;;;14.43;9.70;;;10.50;92.70;;;;;;5030764;28;20022;-84
2021/04/19 04:25:47;;;;;;;13.50;8.37;;;10.50;93.00;;;;;;5029140;28;20022;-84
2021/04/19 04:28:13;;;;;;;15.00;9.50;;;10.50;93.20;;;;;;5030745;28;20358;-83
2021/04/19 04:30:39;;;;;;;17.13;10.03;;;10.50;93.30;;;;;;5030306;28;20417;-84
2021/04/19 04:33:06;;;;;;;17.30;10.03;;;10.50;93.70;;;;;;5029965;28;20037;-85
2021/04/19 04:35:33;;;;;;;17.93;10.67;;;10.50;93.80;;;;;;5031886;28;20031;-85
2021/04/19 04:38:00;;;;;;;17.77;11.43;;;10.40;94.10;;;;;;5004680;28;20034;-85
2021/04/19 04:40:29;;;;;;;17.27;10.07;;;10.50;94.50;;;;;;5031206;28;20096;-86
2021/04/19 04:43:09;;;;;;;22.70;10.87;;;10.50;95.00;;;;;;5033009;28;20036;-86
2021/04/19 04:45:35;;;;;;;;;;;10.50;94.60;;;;;;5032381;28;20120;-87
2021/04/19 04:48:02;;;;;;;19.53;13.40;;;10.50;95.20;;;;;;5033018;28;20002;-87
2021/04/19 04:50:54;;;;;;;19.60;12.60;;;10.50;95.50;;;;;;5033932;28;20544;-90
2021/04/19 04:53:21;;;;;;;21.67;14.00;;;10.50;95.50;;;;;;5028711;28;20109;-87
2021/04/19 04:55:48;;;;;;;23.57;14.40;;;10.50;95.90;;;;;;5036291;28;20039;-88
2021/04/19 04:58:15;;;;;;;24.33;15.10;;;10.50;96.30;;;;;;5035352;28;20037;-86
2021/04/19 05:00:42;;;;;;;21.80;14.87;;;10.50;96.80;;;;;;5029487;28;20025;-85
2021/04/19 05:03:10;;;;;;;23.47;15.50;;;10.40;97.30;;;;;;5029396;28;20032;-86
2021/04/19 05:05:36;;;;;;;26.37;16.33;;;10.40;97.50;;;;;;5030270;28;20038;-85
2021/04/19 05:08:03;;;;;;;27.63;16.83;;;10.30;97.60;;;;;;5029773;28;20166;-86
2021/04/19 05:10:28;;;;;;;34.37;18.23;;;10.30;97.70;;;;;;5028464;28;20025;-85
2021/04/19 05:12:54;;;;;;;32.73;18.37;;;10.30;98.00;;;;;;5029840;28;20059;-84
2021/04/19 05:15:20;;;;;;;27.23;17.63;;;10.30;98.10;;;;;;5030960;28;20076;-85
2021/04/19 05:17:46;;;;;;;30.33;18.73;;;10.30;97.90;;;;;;5031350;28;20030;-83
2021/04/19 05:20:14;;;;;;;31.53;20.23;;;10.40;97.80;;;;;;5029864;28;20358;-87
2021/04/19 05:22:41;;;;;;;32.37;18.20;;;10.40;97.70;;;;;;5030634;28;20432;-85
2021/04/19 05:25:08;;;;;;;32.77;18.53;;;10.40;97.90;;;;;;5030343;28;20029;-85
2021/04/19 05:27:34;;;;;;;31.83;19.73;;;10.40;98.10;;;;;;5029940;28;20025;-85
2021/04/19 05:30:00;;;;;;;34.73;20.13;;;10.30;98.10;;;;;;5033043;28;20575;-84
2021/04/19 05:32:29;;;;;;;33.30;20.80;;;10.30;98.50;;;;;;5033391;28;20469;-83
2021/04/19 05:34:56;;;;;;;39.00;21.75;;;10.20;98.50;;;;;;5033649;28;20036;-83
2021/04/19 05:37:24;;;;;;;34.90;21.13;;;10.20;98.60;;;;;;5032884;28;20036;-83
2021/04/19 05:39:49;;;;;;;41.83;23.00;;;10.20;98.80;;;;;;5038385;28;20041;-83
2021/04/19 05:42:16;;;;;;;41.30;22.43;;;10.10;98.90;;;;;;5039671;28;20512;-83
2021/04/19 05:44:43;;;;;;;33.63;19.47;;;10.10;99.20;;;;;;5035783;28;20030;-82
2021/04/19 05:47:09;;;;;;;31.97;19.93;;;10.30;98.70;;;;;;5035814;28;20358;-82
2021/04/19 05:49:36;;;;;;;29.20;17.63;;;10.30;98.70;;;;;;5036754;28;20095;-82
2021/04/19 05:52:04;;;;;;;26.87;17.40;;;10.50;98.40;;;;;;5038322;28;20520;-83
2021/04/19 05:54:33;;;;;;;30.13;18.38;;;10.50;98.10;;;;;;5037930;28;20021;-83
2021/04/19 05:57:28;;;;;;;32.20;18.88;;;10.50;98.20;;;;;;5037710;28;20025;-86
2021/04/19 06:00:09;;;;;;;28.73;18.90;;;10.50;98.30;;;;;;5034198;28;20087;-85
2021/04/19 06:02:57;;;;;;;27.43;18.00;;;10.50;98.50;;;;;;5034711;28;20041;-85
2021/04/19 06:05:57;;;;;;;29.47;19.60;;;10.40;98.50;;;;;;5035411;28;20029;-87
2021/04/19 06:08:34;;;;;;;30.23;20.83;;;10.30;98.60;;;;;;5016028;28;20398;-87
2021/04/19 06:11:24;;;;;;;29.73;20.43;;;10.40;99.00;;;;;;5032178;28;20025;-86
2021/04/19 06:13:52;;;;;;;29.97;20.87;;;10.50;99.20;;;;;;5032796;28;20550;-87
2021/04/19 06:16:19;;;;;;;31.43;22.30;;;10.50;99.20;;;;;;5032923;28;20397;-85
2021/04/19 06:18:46;;;;;;;32.33;20.93;;;10.50;99.10;;;;;;5032844;28;20037;-85
2021/04/19 06:21:12;;;;;;;40.50;24.83;;;10.70;99.00;;;;;;5034224;28;20026;-86
2021/04/19 06:23:41;;;;;;;30.00;21.17;;;10.70;99.10;;;;;;5033330;28;20030;-88
2021/04/19 06:26:08;;;;;;;30.23;20.43;;;10.60;98.80;;;;;;5035350;28;20025;-86
2021/04/19 06:28:34;;;;;;;24.93;18.40;;;10.70;99.00;;;;;;5036204;28;20052;-86
2021/04/19 06:31:01;;;;;;;28.23;20.00;;;10.60;98.50;;;;;;5033487;28;20037;-85
2021/04/19 06:33:29;;;;;;;28.27;18.73;;;10.70;98.60;;;;;;5034817;28;20074;-85
2021/04/19 06:35:55;;;;;;;28.87;20.30;;;10.70;99.60;;;;;;5035658;28;20037;-84
2021/04/19 06:38:21;;;;;;;27.03;19.90;;;10.80;99.90;;;;;;5033684;28;20083;-87
2021/04/19 06:40:46;;;;;;;30.73;21.23;;;10.80;99.50;;;;;;5034193;28;20051;-86
2021/04/19 06:43:13;;;;;;;32.13;20.80;;;10.70;99.90;;;;;;5033962;28;20037;-85
2021/04/19 06:45:40;;;;;;;28.50;20.07;;;10.80;99.30;;;;;;5033980;28;20033;-86
2021/04/19 06:48:08;;;;;;;26.60;19.90;;;10.70;98.80;;;;;;5035711;28;20363;-84
2021/04/19 06:50:35;;;;;;;28.57;19.90;;;10.70;98.70;;;;;;5032312;28;20028;-84
2021/04/19 06:53:01;;;;;;;28.17;19.43;;;10.70;98.60;;;;;;5035445;28;20029;-84
2021/04/19 06:55:27;;;;;;;28.80;19.67;;;10.80;98.80;;;;;;5021453;28;20029;-87
2021/04/19 06:57:57;;;;;;;27.07;19.63;;;10.80;98.90;;;;;;5011373;28;20088;-86
2021/04/19 07:00:28;;;;;;;25.20;19.23;;;10.80;98.50;;;;;;5011743;28;20025;-87
2021/04/19 07:02:59;;;;;;;26.47;17.97;;;10.90;98.10;;;;;;5028377;28;20064;-86
2021/04/19 07:05:35;;;;;;;26.93;18.50;;;10.80;98.30;;;;;;5032290;28;20029;-89
2021/04/19 07:08:23;;;;;;;28.43;18.63;;;10.80;98.00;;;;;;5033707;28;20097;-88
2021/04/19 07:10:54;;;;;;;23.57;17.83;;;10.90;98.40;;;;;;5031080;28;20025;-86
2021/04/19 07:13:21;;;;;;;24.37;17.80;;;10.90;98.40;;;;;;5032747;28;20485;-84
2021/04/19 07:15:47;;;;;;;25.43;17.57;;;10.90;98.80;;;;;;5031927;28;20445;-84
2021/04/19 07:18:15;;;;;;;25.13;16.47;;;10.80;98.30;;;;;;5033076;28;20028;-84
2021/04/19 07:20:44;;;;;;;24.30;15.40;;;10.90;97.70;;;;;;5033025;28;20029;-84
2021/04/19 07:23:09;;;;;;;22.27;15.93;;;10.80;97.70;;;;;;5033715;28;20367;-84
2021/04/19 07:25:35;;;;;;;20.00;14.93;;;10.80;98.10;;;;;;5034639;28;20040;-84
2021/04/19 07:28:04;;;;;;;19.70;14.60;;;10.80;98.00;;;;;;5033312;28;20022;-84
2021/04/19 07:30:29;;;;;;;22.42;14.68;;;10.80;98.00;;;;;;5033277;28;20052;-83
2021/04/19 07:32:55;;;;;;;20.90;14.60;;;10.90;97.80;;;;;;5033232;28;20062;-84
2021/04/19 07:35:30;;;;;;;20.90;15.33;;;10.70;97.70;;;;;;5035425;28;20048;-84
2021/04/19 07:38:02;;;;;;;23.03;16.23;;;10.70;98.10;;;;;;5032690;28;20022;-84
2021/04/19 07:40:40;;;;;;;20.27;14.60;;;10.80;98.20;;;;;;5034699;28;20414;-85
2021/04/19 07:43:14;;;;;;;19.30;13.87;;;10.80;98.10;;;;;;5033392;28;20026;-85
2021/04/19 07:45:59;;;;;;;19.33;14.10;;;10.90;97.90;;;;;;5031584;28;20032;-85
2021/04/19 07:48:33;;;;;;;21.77;13.90;;;10.90;97.30;;;;;;5034459;28;20123;-85
2021/04/19 07:50:59;;;;;;;17.10;12.33;;;10.80;97.60;;;;;;5034525;28;20029;-82
2021/04/19 07:53:25;;;;;;;19.43;13.23;;;10.90;97.50;;;;;;5035450;28;20159;-82
2021/04/19 07:55:52;;;;;;;19.37;13.30;;;10.80;97.40;;;;;;5032859;28;20045;-82
2021/04/19 07:58:21;;;;;;;20.03;13.00;;;10.80;97.80;;;;;;5035324;28;20028;-85
2021/04/19 08:00:48;;;;;;;18.75;12.88;;;10.90;97.70;;;;;;5026242;28;20018;-86
2021/04/19 08:03:18;;;;;;;20.83;14.47;;;10.80;98.00;;;;;;5029348;28;20032;-86
2021/04/19 08:05:52;;;;;;;21.03;14.33;;;10.80;98.10;;;;;;5031656;28;20104;-87
2021/04/19 08:08:38;;;;;;;21.33;14.00;;;10.70;98.00;;;;;;5030474;28;20030;-89
2021/04/19 08:11:10;;;;;;;20.30;14.27;;;10.80;98.10;;;;;;5029552;28;20045;-90
2021/04/19 08:13:35;;;;;;;19.93;13.97;;;10.70;98.60;;;;;;5028575;28;20485;-86
2021/04/19 08:16:19;;;;;;;20.37;13.60;;;10.70;98.40;;;;;;5029076;28;20036;-87
2021/04/19 08:18:45;;;;;;;18.77;12.87;;;10.70;98.30;;;;;;5031582;28;20083;-88
2021/04/19 08:21:11;;;;;;;19.70;12.57;;;10.60;98.30;;;;;;5031954;28;20021;-86
2021/04/19 08:23:39;;;;;;;21.83;12.93;;;10.70;98.00;;;;;;5033398;28;20045;-87
2021/04/19 08:26:05;;;;;;;24.83;13.23;;;10.60;97.70;;;;;;5037061;28;20033;-87
2021/04/19 08:28:41;;;;;;;16.87;12.33;;;10.70;99.10;;;;;;5037799;28;20123;-86
2021/04/19 08:31:08;;;;;;;22.47;12.83;;;10.60;98.30;;;;;;5037066;28;20037;-86
2021/04/19 08:33:36;;;;;;;19.30;12.80;;;10.70;98.50;;;;;;5035618;28;20061;-85
2021/04/19 08:36:01;;;;;;;19.80;13.73;;;10.80;98.10;;;;;;5036161;28;20029;-85
2021/04/19 08:38:30;;;;;;;18.70;13.83;;;10.70;98.60;;;;;;5038722;28;20052;-84
2021/04/19 08:40:56;;;;;;;20.27;13.40;;;10.70;98.50;;;;;;5037452;28;20025;-85
2021/04/19 08:43:24;;;;;;;25.20;15.43;;;10.70;98.40;;;;;;5034348;28;20091;-84
2021/04/19 08:45:51;;;;;;;24.00;14.60;;;10.70;99.40;;;;;;5036634;28;20056;-84
2021/04/19 08:48:17;;;;;;;17.90;12.87;;;10.60;98.90;;;;;;5040088;28;20055;-84
2021/04/19 08:50:46;;;;;;;19.60;12.53;;;10.80;98.50;;;;;;5040707;28;20045;-83
2021/04/19 08:53:13;;;;;;;18.35;13.10;;;10.80;97.50;;;;;;5041901;28;20121;-83
2021/04/19 08:55:41;;;;;;;17.80;12.40;;;10.80;97.80;;;;;;5041941;28;20049;-83
2021/04/19 08:58:11;;;;;;;20.17;13.03;;;10.80;98.00;;;;;;5043126;28;20101;-85
2021/04/19 09:00:49;;;;;;;17.73;13.00;;;10.90;97.70;;;;;;5038254;28;20371;-84
2021/04/19 09:03:17;;;;;;;18.97;12.53;;;11.00;97.20;;;;;;5042220;28;20018;-84
2021/04/19 09:05:44;;;;;;;16.57;12.20;;;11.00;97.60;;;;;;5040926;28;20158;-84
2021/04/19 09:08:15;;;;;;;21.10;12.80;;;11.00;97.40;;;;;;5036973;28;20084;-88
2021/04/19 09:11:06;;;;;;;17.97;12.47;;;11.00;97.30;;;;;;5037790;28;20029;-84
2021/04/19 09:13:35;;;;;;;18.27;12.40;;;11.00;97.40;;;;;;5038799;28;20064;-83
2021/04/19 09:16:19;;;;;;;19.27;13.27;;;11.10;97.60;;;;;;5043131;28;20018;-84
2021/04/19 09:18:55;;;;;;;17.13;12.80;;;11.10;97.50;;;;;;5044677;28;20096;-84
2021/04/19 09:21:40;;;;;;;17.97;13.60;;;11.10;97.40;;;;;;5043947;28;20474;-85
2021/04/19 09:24:11;;;;;;;18.27;13.87;;;11.10;97.40;;;;;;5047686;28;20025;-84
2021/04/19 09:26:46;;;;;;;21.33;15.83;;;11.10;97.50;;;;;;5043521;28;20390;-85
2021/04/19 09:29:37;;;;;;;20.23;14.00;;;11.10;97.10;;;;;;5041051;28;20022;-86
2021/04/19 09:32:19;;;;;;;19.43;13.47;;;11.10;96.60;;;;;;5038436;28;20100;-86
2021/04/19 09:34:54;;;;;;;20.23;12.97;;;11.10;96.70;;;;;;5037962;28;20029;-87
2021/04/19 09:37:41;;;;;;;19.33;12.80;;;11.10;96.50;;;;;;5038990;28;20466;-84
2021/04/19 09:40:16;;;;;;;16.90;12.00;;;11.10;96.30;;;;;;5036629;28;20054;-84
2021/04/19 09:42:57;;;;;;;16.63;11.93;;;11.10;96.10;;;;;;5037112;28;20017;-85
2021/04/19 09:45:41;;;;;;;17.90;12.90;;;11.10;96.40;;;;;;5036064;28;20034;-84
2021/04/19 09:48:25;;;;;;;20.70;13.57;;;11.30;96.90;;;;;;5039358;28;20025;-84
2021/04/19 09:50:59;;;;;;;19.30;13.40;;;11.30;96.90;;;;;;5036730;28;20029;-84
2021/04/19 09:53:26;;;;;;;19.90;13.80;;;11.20;97.30;;;;;;5035324;28;20029;-84
2021/04/19 09:55:52;;;;;;;21.97;14.30;;;11.40;97.50;;;;;;5036689;28;20025;-84
2021/04/19 09:58:18;;;;;;;24.17;16.87;;;11.40;96.90;;;;;;5034413;28;20355;-86
2021/04/19 10:00:45;;;;;;;23.73;15.73;;;11.50;96.50;;;;;;5031382;28;20048;-85
2021/04/19 10:03:11;;;;;;;23.07;15.90;;;11.50;96.30;;;;;;5034761;28;20029;-84
2021/04/19 10:05:38;;;;;;;19.87;14.70;;;11.40;96.40;;;;;;5035043;28;20037;-85
2021/04/19 10:08:05;;;;;;;22.27;15.43;;;11.50;96.70;;;;;;5033658;28;20029;-85
2021/04/19 10:10:31;;;;;;;21.07;14.47;;;11.60;96.60;;;;;;5035067;28;20117;-84
2021/04/19 10:12:57;;;;;;;20.90;15.80;;;11.80;96.40;;;;;;5035314;28;20026;-84
2021/04/19 10:15:25;;;;;;;23.33;15.00;;;11.80;95.70;;;;;;5032205;28;20048;-86
2021/04/19 10:17:51;;;;;;;18.13;14.07;;;11.80;95.00;;;;;;5033280;28;20025;-84
2021/04/19 10:20:19;;;;;;;16.37;12.57;;;11.80;94.20;;;;;;5032847;28;20032;-85
2021/04/19 10:23:03;;;;;;;18.10;12.80;;;11.60;94.10;;;;;;5035689;28;20725;-82
2021/04/19 10:25:29;;;;;;;16.73;12.03;;;11.70;94.40;;;;;;5032664;28;20033;-82
2021/04/19 10:27:55;;;;;;;17.73;11.70;;;11.80;94.50;;;;;;5035884;28;20710;-82
2021/04/19 10:30:21;;;;;;;15.93;11.40;;;11.70;93.70;;;;;;5035866;28;20022;-82
2021/04/19 10:32:48;;;;;;;16.37;11.47;;;11.80;94.20;;;;;;5059408;23;20489;-81
2021/04/19 10:35:36;;;;;;;15.47;11.33;;;11.90;94.50;;;;;;5052875;28;20063;-81
2021/04/19 10:38:03;;;;;;;14.57;11.10;;;11.90;93.80;;;;;;5054641;28;20059;-80
2021/04/19 10:40:29;;;;;;;14.87;11.57;;;12.00;93.70;;;;;;5052286;28;20037;-81
2021/04/19 10:43:12;;;;;;;17.53;11.53;;;12.00;93.20;;;;;;5022094;28;20125;-82
2021/04/19 10:45:40;;;;;;;15.10;11.43;;;12.00;93.00;;;;;;5013795;28;20080;-82
2021/04/19 10:48:29;;;;;;;19.17;14.03;;;12.00;93.30;;;;;;5013970;28;20022;-81
2021/04/19 10:50:56;;;;;;;;;;;12.10;93.30;;;;;;5013545;28;20030;-82
2021/04/19 10:53:31;;;;;;;18.13;13.43;;;12.10;93.10;;;;;;5015386;28;19949;-82
2021/04/19 10:55:59;;;;;;;20.33;13.83;;;12.10;93.30;;;;;;5014860;28;20021;-82
2021/04/19 10:58:26;;;;;;;20.13;14.03;;;12.10;93.70;;;;;;5013679;28;20025;-81
2021/04/19 11:00:52;;;;;;;16.53;12.40;;;12.20;93.40;;;;;;5011783;28;20026;-83
2021/04/19 11:03:18;;;;;;;21.20;15.37;;;12.20;92.60;;;;;;5015111;28;20509;-81
2021/04/19 11:05:43;;;;;;;20.57;15.30;;;12.20;95.60;;;;;;5013737;28;20071;-81
2021/04/19 11:08:09;;;;;;;25.83;14.63;;;12.30;93.00;;;;;;5013686;28;20030;-80
2021/04/19 11:10:35;;;;;;;19.90;14.87;;;12.30;92.90;;;;;;5014015;28;20042;-80
2021/04/19 11:13:06;;;;;;;22.30;16.60;;;12.30;92.40;;;;;;5013797;28;20037;-80
2021/04/19 11:15:38;;;;;;;23.87;16.13;;;12.30;92.80;;;;;;5015263;28;20363;-81
2021/04/19 11:18:23;;;;;;;24.20;16.50;;;12.40;92.40;;;;;;5014420;28;20037;-81
2021/04/19 11:20:50;;;;;;;25.20;17.40;;;12.40;92.30;;;;;;5015313;28;20049;-81
2021/04/19 11:23:30;;;;;;;23.63;17.40;;;12.50;92.70;;;;;;5013915;28;20668;-81
2021/04/19 11:26:01;;;;;;;22.60;15.93;;;12.60;92.30;;;;;;5016159;28;20022;-81
2021/04/19 11:28:31;;;;;;;27.33;15.10;;;12.60;92.10;;;;;;5015086;28;20401;-81
2021/04/19 11:30:58;;;;;;;24.05;15.20;;;12.60;91.70;;;;;;5016019;28;20030;-81
2021/04/19 11:33:28;;;;;;;17.77;13.60;;;12.60;91.40;;;;;;5017197;28;20705;-81
2021/04/19 11:36:01;;;;;;;;;;;12.70;91.60;;;;;;5016902;28;20060;-81
2021/04/19 11:38:27;;;;;;;22.57;14.73;;;12.70;91.70;;;;;;5016401;28;20238;-80
2021/04/19 11:41:06;;;;;;;29.90;15.27;;;12.80;91.60;;;;;;5015942;28;20129;-80
2021/04/19 11:43:37;;;;;;;28.95;15.18;;;12.70;91.00;;;;;;5016126;28;20022;-81
2021/04/19 11:46:08;;;;;;;25.40;14.97;;;12.80;91.50;;;;;;5014182;28;20077;-81
2021/04/19 11:48:36;;;;;;;22.40;14.57;;;12.80;91.50;;;;;;5015245;28;20159;-82
2021/04/19 11:51:04;;;;;;;19.92;14.45;;;12.80;91.40;;;;;;5013857;28;20117;-79
2021/04/19 11:53:33;;;;;;;19.13;14.20;;;12.90;91.30;;;;;;5014889;28;20537;-79
2021/04/19 11:56:00;;;;;;;22.17;16.85;;;12.80;90.90;;;;;;5013073;28;20030;-79
2021/04/19 11:58:25;;;;;;;22.47;16.20;;;12.80;91.20;;;;;;5015052;28;20096;-79
2021/04/19 12:00:54;;;;;;;20.42;15.85;;;12.80;91.00;;;;;;5015963;28;20018;-80
2021/04/19 12:03:20;;;;;;;22.25;13.52;;;12.80;91.40;;;;;;5023828;28;20045;-83
2021/04/19 12:05:46;;;;;;;19.63;14.65;;;13.50;95.10;;;;;;5032691;28;20030;-78
2021/04/19 12:08:12;;;;;;;22.52;15.57;;;13.50;93.10;;;;;;5029907;28;20040;-79
2021/04/19 12:10:38;;;;;;;23.08;13.80;;;13.50;91.50;;;;;;5030573;28;20032;-80
2021/04/19 12:13:04;;;;;;;16.90;13.18;;;13.50;91.50;;;;;;5030918;28;20466;-80
2021/04/19 12:15:30;;;;;;;16.63;12.25;;;13.50;90.90;;;;;;5029901;28;20490;-80
2021/04/19 12:17:55;;;;;;;17.63;13.05;;;13.40;90.60;;;;;;5029268;28;20849;-80
2021/04/19 12:20:21;;;;;;;18.85;13.02;;;13.30;90.50;;;;;;5030123;28;20104;-80
2021/04/19 12:22:47;;;;;;;21.08;12.82;;;13.20;90.00;;;;;;5029380;28;20466;-80
2021/04/19 12:25:13;;;;;;;17.92;13.15;;;13.20;90.20;;;;;;5029623;28;20030;-80
2021/04/19 12:27:39;;;;;;;16.30;12.38;;;13.10;90.20;;;;;;5029647;28;20033;-80
2021/04/19 12:30:06;;;;;;;20.75;13.18;;;13.00;90.20;;;;;;5029778;28;20373;-81
2021/04/19 12:32:31;;;;;;;19.60;12.60;;;13.00;90.50;;;;;;5030755;28;20087;-80
2021/04/19 12:34:57;;;;;;;17.88;13.30;;;13.00;90.70;;;;;;5033821;28;20037;-81
2021/04/19 12:37:23;;;;;;;19.77;13.90;;;12.90;91.00;;;;;;5033131;28;20120;-81
2021/04/19 12:39:48;;;;;;;24.70;15.27;;;12.90;91.00;;;;;;5032787;28;20033;-80
2021/04/19 12:42:14;;;;;;;21.73;14.13;;;12.80;91.30;;;;;;5031302;28;20104;-80
2021/04/19 12:44:40;;;;;;;22.30;13.80;;;12.80;90.90;;;;;;5033157;28;20021;-80